Time;durP1;ratioP1;P1;durP2;ratioP2;P2;SDS_P1;SDS_P2;PMS_P1;PMS_P2;Temp;Humidity;BMP_temperature;BMP_pressure;BME280_temperature;BME280_humidity;BME280_pressure;Samples;Min_cycle;Max_cycle;Signal;HPM_P1;HPM_P2
2022/12/27 09:22:38;;;;;;;;;11.00;7.00;;;;;7.18;100.00;102659.41;5479336;23;49569;-73
2022/12/27 09:25:04;;;;;;;;;11.75;7.75;;;;;7.24;100.00;102658.94;4910649;29;49498;-69
2022/12/27 09:27:30;;;;;;;;;10.25;6.00;;;;;7.24;100.00;102651.09;4905815;29;49688;-68
2022/12/27 09:29:55;;;;;;;;;7.75;6.75;;;;;7.61;100.00;102700.44;4889870;29;50031;-72
2022/12/27 09:32:20;;;;;;;;;12.00;8.00;;;;;7.67;100.00;102700.84;4892569;29;50431;-72
2022/12/27 09:34:46;;;;;;;;;8.50;7.75;;;;;7.72;100.00;102713.41;4899238;28;49775;-78
2022/12/27 09:37:11;;;;;;;;;8.00;7.50;;;;;7.30;100.00;102633.16;4904561;28;49576;-76
2022/12/27 09:39:37;;;;;;;;;9.00;7.25;;;;;7.81;100.00;102731.38;4901771;28;49724;-77
2022/12/27 09:42:21;;;;;;;;;13.25;11.00;;;;;7.83;100.00;102721.03;4904403;28;51168;-74
2022/12/27 09:45:00;;;;;;;;;6.25;6.00;;;;;7.79;100.00;102712.06;4894611;28;49835;-72
2022/12/27 09:47:45;;;;;;;;;7.25;7.25;;;;;7.82;100.00;102703.53;4901248;29;50025;-71
2022/12/27 09:50:16;;;;;;;;;9.75;7.75;;;;;7.77;100.00;102699.72;4899020;28;49815;-72
2022/12/27 09:52:58;;;;;;;;;11.00;7.50;;;;;7.75;100.00;102695.31;4895489;29;51719;-72
2022/12/27 09:55:33;;;;;;;;;9.50;7.00;;;;;7.50;100.00;102649.22;4894435;28;49620;-73
2022/12/27 09:58:20;;;;;;;;;7.25;5.00;;;;;7.83;100.00;102715.81;4894616;28;50340;-72
2022/12/27 10:00:49;;;;;;;;;6.25;4.75;;;;;7.12;100.00;102578.03;4903867;28;49795;-72
2022/12/27 10:03:18;;;;;;;;;8.00;7.50;;;;;7.84;100.00;102712.38;4894209;29;49993;-72
2022/12/27 10:05:51;;;;;;;;;6.75;6.75;;;;;7.77;100.00;102687.53;4898703;28;49696;-73
2022/12/27 10:08:28;;;;;;;;;7.00;6.00;;;;;7.83;100.00;102695.78;4897064;29;49836;-71
2022/12/27 10:11:34;;;;;;;;;6.50;5.50;;;;;7.53;100.00;102649.41;4897297;28;49785;-71
2022/12/27 10:14:05;;;;;;;;;11.00;8.00;;;;;7.28;100.00;102592.09;4893774;29;50071;-71
2022/12/27 10:16:39;;;;;;;;;6.00;5.00;;;;;7.81;100.00;102683.41;4898684;28;49928;-70
2022/12/27 10:19:46;;;;;;;;;11.00;7.00;;;;;7.86;100.00;102684.59;4892656;29;49799;-70
2022/12/27 10:22:18;;;;;;;;;7.00;7.00;;;;;7.53;100.00;102615.41;4890581;29;49793;-69
2022/12/27 10:24:52;;;;;;;;;7.25;7.00;;;;;7.94;100.00;102675.53;4893648;28;51521;-69
2022/12/27 10:27:23;;;;;;;;;5.75;4.25;;;;;7.98;100.00;102675.81;4893996;28;49657;-72
2022/12/27 10:29:52;;;;;;;;;6.00;4.75;;;;;8.02;100.00;102669.97;4894081;28;49749;-72
2022/12/27 10:32:18;;;;;;;;;2.25;2.00;;;;;7.49;100.00;102577.75;4897505;28;49915;-72
2022/12/27 10:34:43;;;;;;;;;6.25;6.25;;;;;8.11;100.00;102672.25;4899481;28;50011;-76
2022/12/27 10:37:15;;;;;;;;;5.00;5.00;;;;;8.14;100.00;102689.84;4893422;28;49752;-72
2022/12/27 10:39:41;;;;;;;;;3.25;3.25;;;;;7.78;100.00;102610.91;4896684;28;49982;-76
2022/12/27 10:42:23;;;;;;;;;8.00;7.25;;;;;7.21;100.00;102509.81;4894267;28;49760;-69
2022/12/27 10:44:48;;;;;;;;;7.50;7.00;;;;;8.02;100.00;102635.06;4892606;28;50042;-70
2022/12/27 10:47:15;;;;;;;;;8.50;4.25;;;;;8.09;100.00;102645.06;4892737;29;49736;-70
2022/12/27 10:49:43;;;;;;;;;6.00;3.00;;;;;8.20;100.00;102651.88;4894064;28;50058;-70
2022/12/27 10:52:23;;;;;;;;;4.00;4.00;;;;;8.37;100.00;102673.84;4893493;28;49855;-70
2022/12/27 10:54:57;;;;;;;;;6.00;6.00;;;;;8.31;100.00;102649.91;4893603;28;50667;-70
2022/12/27 10:57:32;;;;;;;;;6.25;3.75;;;;;8.47;100.00;102668.34;4893162;29;60630;-70
2022/12/27 11:00:17;;;;;;;;;7.25;6.25;;;;;8.50;100.00;102678.13;4892594;29;50060;-70
2022/12/27 11:02:49;;;;;;;;;4.25;3.00;;;;;8.50;100.00;102662.41;4893610;28;49910;-70
2022/12/27 11:05:21;;;;;;;;;7.50;6.50;;;;;8.60;100.00;102675.22;4892963;29;49669;-69
2022/12/27 11:07:46;;;;;;;;;4.75;4.25;;;;;8.64;100.00;102665.81;4893418;29;49593;-70
2022/12/27 11:10:19;;;;;;;;;3.50;2.00;;;;;8.41;100.00;102633.06;4893454;29;49610;-70
2022/12/27 11:13:17;;;;;;;;;3.00;3.00;;;;;8.71;100.00;102658.44;4893842;29;49917;-70
2022/12/27 11:15:52;;;;;;;;;3.50;2.25;;;;;8.78;100.00;102657.03;4888009;29;50506;-70
2022/12/27 11:18:19;;;;;;;;;2.75;1.75;;;;;8.53;100.00;102590.19;4896967;29;49731;-70
2022/12/27 11:20:52;;;;;;;;;4.00;1.75;;;;;8.51;100.00;102578.72;4896319;28;49886;-70
2022/12/27 11:23:20;;;;;;;;;1.25;1.00;;;;;8.43;100.00;102545.97;4896778;28;49887;-70
2022/12/27 11:25:53;;;;;;;;;2.75;1.75;;;;;8.94;100.00;102632.66;4896410;28;50359;-70
2022/12/27 11:28:31;;;;;;;;;2.00;1.25;;;;;8.96;100.00;102620.53;4896471;28;49696;-70
2022/12/27 11:31:03;;;;;;;;;3.50;3.50;;;;;9.00;100.00;102612.97;4896685;29;49853;-70
2022/12/27 11:33:40;;;;;;;;;3.00;3.00;;;;;8.98;100.00;102617.22;4895552;29;49766;-70
2022/12/27 11:36:08;;;;;;;;;0.25;0.25;;;;;9.07;100.00;102593.22;4896099;28;50674;-70
2022/12/27 11:38:36;;;;;;;;;4.00;2.75;;;;;8.50;100.00;102482.69;4890711;29;49715;-70
2022/12/27 11:41:30;;;;;;;;;3.50;2.50;;;;;8.99;100.00;102557.88;4890567;28;49937;-70
2022/12/27 11:44:02;;;;;;;;;3.25;2.25;;;;;8.99;100.00;102547.38;4896671;28;50051;-70
2022/12/27 11:46:53;;;;;;;;;2.00;1.00;;;;;9.04;100.00;102544.19;4895876;28;49976;-70
2022/12/27 11:49:45;;;;;;;;;2.25;2.00;;;;;9.17;100.00;102565.03;4896244;29;49621;-70
2022/12/27 11:52:26;;;;;;;;;3.75;2.00;;;;;9.32;100.00;102578.06;4896074;28;49617;-71
2022/12/27 11:55:10;;;;;;;;;1.00;1.00;;;;;9.34;100.00;102584.28;4896562;28;49814;-70
2022/12/27 11:57:54;;;;;;;;;1.50;1.00;;;;;9.37;100.00;102579.22;4896300;29;50217;-69
2022/12/27 12:00:26;;;;;;;;;1.75;1.00;;;;;9.42;100.00;102582.97;4896234;29;49687;-70
2022/12/27 12:03:28;;;;;;;;;3.00;1.50;;;;;9.46;100.00;102584.06;4896124;28;49820;-70
2022/12/27 12:05:56;;;;;;;;;1.75;1.25;;;;;9.51;100.00;102584.31;4895758;29;49720;-70
2022/12/27 12:08:43;;;;;;;;;2.75;2.75;;;;;9.52;100.00;102583.47;4895867;28;49916;-70
2022/12/27 12:11:29;;;;;;;;;0.50;0.50;;;;;9.28;100.00;102533.28;4896047;29;49678;-70
2022/12/27 12:14:10;;;;;;;;;2.50;2.50;;;;;9.54;100.00;102577.50;4896067;29;49740;-70
2022/12/27 12:16:54;;;;;;;;;1.00;1.00;;;;;9.61;100.00;102579.63;4896441;29;50146;-70
2022/12/27 12:19:52;;;;;;;;;2.00;2.00;;;;;9.65;100.00;102575.44;4895597;29;52303;-70
2022/12/27 12:22:55;;;;;;;;;3.00;1.00;;;;;9.69;100.00;102575.69;4895292;29;49715;-71
2022/12/27 12:25:35;;;;;;;;;3.00;1.00;;;;;9.73;100.00;102577.66;4895014;29;49824;-70
2022/12/27 12:28:38;;;;;;;;;2.75;1.50;;;;;9.78;100.00;102561.28;4896004;28;49752;-70
2022/12/27 12:31:06;;;;;;;;;3.00;2.00;;;;;9.82;100.00;102560.59;4895634;28;50959;-71
2022/12/27 12:34:04;;;;;;;;;2.25;2.25;;;;;9.82;100.00;102553.63;4895856;28;50027;-71
2022/12/27 12:36:35;;;;;;;;;0.50;0.50;;;;;9.86;100.00;102542.50;4895252;28;49731;-70
2022/12/27 12:39:03;;;;;;;;;1.25;1.25;;;;;9.61;100.00;102495.72;4895763;28;49969;-70
2022/12/27 12:41:59;;;;;;;;;2.75;2.00;;;;;9.87;100.00;102536.44;4895091;28;49997;-70
2022/12/27 12:44:40;;;;;;;;;1.00;1.00;;;;;9.89;100.00;102541.75;4895591;28;49755;-70
2022/12/27 12:47:29;;;;;;;;;1.00;1.00;;;;;9.89;100.00;102531.25;4895613;28;49874;-70
2022/12/27 12:50:29;;;;;;;;;1.00;1.00;;;;;9.90;100.00;102533.06;4896815;28;49640;-70
2022/12/27 12:53:03;;;;;;;;;2.75;2.00;;;;;9.94;100.00;102520.19;4895049;29;50299;-70
2022/12/27 12:55:37;;;;;;;;;2.00;2.00;;;;;9.95;100.00;102510.59;4894902;28;49713;-70
2022/12/27 12:58:41;;;;;;;;;1.25;1.25;;;;;9.99;100.00;102508.19;4895303;28;49819;-70
2022/12/27 13:01:34;;;;;;;;;0.25;0.25;;;;;10.04;100.00;102500.56;4895318;28;50001;-70
2022/12/27 13:04:41;;;;;;;;;3.75;2.50;;;;;10.03;100.00;102510.13;4895179;29;50527;-70
2022/12/27 13:07:22;;;;;;;;;2.00;0.75;;;;;10.05;100.00;102497.13;4894979;28;49969;-70
2022/12/27 13:09:56;;;;;;;;;2.00;1.00;;;;;10.06;100.00;102490.16;4895167;28;49740;-70
2022/12/27 13:13:04;;;;;;;;;1.00;1.00;;;;;10.08;100.00;102489.38;4895548;28;50002;-70
2022/12/27 13:15:51;;;;;;;;;1.00;1.00;;;;;10.08;100.00;102484.13;4853758;29;49876;-70
2022/12/27 13:18:37;;;;;;;;;1.00;1.00;;;;;9.78;100.00;102419.66;4892162;28;49710;-70
2022/12/27 13:21:02;;;;;;;;;0.75;0.75;;;;;10.14;100.00;102484.47;4894644;28;49807;-70
2022/12/27 13:23:49;;;;;;;;;1.00;1.00;;;;;10.17;100.00;102475.84;4895198;29;49874;-70
2022/12/27 13:26:37;;;;;;;;;1.25;0.00;;;;;10.10;100.00;102458.88;4894463;29;49826;-70
2022/12/27 13:29:30;;;;;;;;;1.00;1.00;;;;;10.10;100.00;102448.38;4895003;28;49981;-69
2022/12/27 13:32:01;;;;;;;;;0.75;0.75;;;;;10.12;100.00;102446.72;4894919;28;49683;-70
2022/12/27 13:35:04;;;;;;;;;2.00;2.00;;;;;10.21;100.00;102454.16;4893644;29;49625;-70
2022/12/27 13:37:56;;;;;;;;;1.00;1.00;;;;;10.13;100.00;102439.75;4872904;29;50584;-69
2022/12/27 13:40:24;;;;;;;;;4.25;1.00;;;;;10.28;100.00;102465.06;4884532;29;49862;-70
2022/12/27 13:43:14;;;;;;;;;2.75;1.50;;;;;10.30;100.00;102454.63;4894543;28;49599;-69
2022/12/27 13:46:04;;;;;;;;;2.00;1.00;;;;;10.29;100.00;102453.72;4894647;29;49684;-72
2022/12/27 13:48:51;;;;;;;;;1.00;1.00;;;;;10.29;100.00;102450.22;4894645;29;50686;-70
2022/12/27 13:51:41;;;;;;;;;0.00;0.00;;;;;10.29;100.00;102456.34;4893959;29;49829;-70
2022/12/27 13:54:21;;;;;;;;;2.75;1.00;;;;;10.30;100.00;102445.03;4894211;29;49846;-70
2022/12/27 13:57:24;;;;;;;;;1.00;1.00;;;;;10.30;100.00;102449.38;4894472;28;49877;-70
2022/12/27 14:00:10;;;;;;;;;1.50;1.50;;;;;10.29;100.00;102444.97;4894093;28;50292;-70
2022/12/27 14:02:35;;;;;;;;;0.25;0.25;;;;;9.93;100.00;102375.78;4887170;29;49926;-70
2022/12/27 14:05:01;;;;;;;;;4.00;0.25;;;;;10.29;100.00;102426.59;4894043;28;49739;-70
2022/12/27 14:07:37;;;;;;;;;1.75;1.75;;;;;9.86;100.00;102358.88;4888222;29;49773;-70
2022/12/27 14:10:12;;;;;;;;;1.00;1.00;;;;;10.15;100.00;102402.28;4888717;28;50264;-70
2022/12/27 14:12:55;;;;;;;;;2.00;1.00;;;;;10.29;100.00;102421.34;4894320;28;50010;-70
2022/12/27 14:15:26;;;;;;;;;0.25;0.25;;;;;10.28;100.00;102417.81;4894211;29;49911;-70
2022/12/27 14:17:51;;;;;;;;;2.25;2.25;;;;;10.27;100.00;102420.38;4894446;28;49818;-70
2022/12/27 14:20:34;;;;;;;;;3.50;1.00;;;;;10.24;100.00;102415.88;4893753;29;50907;-70
2022/12/27 14:23:12;;;;;;;;;2.50;1.00;;;;;10.22;100.00;102412.25;4893808;28;49652;-70
2022/12/27 14:25:43;;;;;;;;;1.50;0.25;;;;;10.23;100.00;102405.28;4894192;28;50111;-70
2022/12/27 14:28:23;;;;;;;;;2.00;2.00;;;;;10.13;100.00;102390.78;4892962;29;50063;-70
2022/12/27 14:31:27;;;;;;;;;0.50;0.50;;;;;10.16;100.00;102397.94;4893659;28;50821;-70
2022/12/27 14:34:19;;;;;;;;;6.00;1.00;;;;;10.23;100.00;102400.03;4893913;28;49789;-70
2022/12/27 14:36:57;;;;;;;;;1.75;1.00;;;;;10.22;100.00;102398.25;4893902;28;50085;-70
2022/12/27 14:39:37;;;;;;;;;0.25;0.25;;;;;10.19;100.00;102404.22;4894373;28;49963;-70
2022/12/27 14:42:39;;;;;;;;;0.50;0.50;;;;;10.18;100.00;102399.78;4887883;28;50432;-70
2022/12/27 14:45:38;;;;;;;;;1.00;1.00;;;;;10.17;100.00;102411.13;4892441;28;50456;-70
2022/12/27 14:48:28;;;;;;;;;3.25;2.25;;;;;10.12;100.00;102395.97;4894241;29;49959;-70
2022/12/27 14:51:07;;;;;;;;;0.50;0.50;;;;;10.13;100.00;102403.91;4897040;28;49946;-70
2022/12/27 14:53:49;;;;;;;;;4.75;3.00;;;;;9.95;100.00;102367.19;4897231;28;49903;-70
2022/12/27 14:56:52;;;;;;;;;0.50;0.50;;;;;10.11;100.00;102391.53;4897193;28;49830;-70
2022/12/27 14:59:50;;;;;;;;;1.00;1.00;;;;;9.79;100.00;102341.03;4897324;29;49983;-70
2022/12/27 15:02:31;;;;;;;;;2.00;2.00;;;;;10.09;100.00;102382.72;4897176;28;50116;-70
2022/12/27 15:05:15;;;;;;;;;5.25;3.25;;;;;10.05;100.00;102373.78;4896558;28;51032;-70
2022/12/27 15:08:01;;;;;;;;;1.00;1.00;;;;;9.99;100.00;102374.38;4896983;28;49919;-73
2022/12/27 15:10:55;;;;;;;;;4.00;3.00;;;;;9.99;100.00;102379.63;4897676;28;49640;-78
2022/12/27 15:13:55;;;;;;;;;3.00;3.00;;;;;9.61;100.00;102308.66;4896738;28;49891;-73
2022/12/27 15:16:35;;;;;;;;;0.25;0.25;;;;;9.93;100.00;102371.44;4896779;28;49878;-77
2022/12/27 15:19:07;;;;;;;;;2.50;1.50;;;;;9.88;100.00;102372.06;4889462;29;49789;-74
2022/12/27 15:21:43;;;;;;;;;2.00;1.00;;;;;9.87;100.00;102376.41;4888301;28;49697;-77
2022/12/27 15:24:32;;;;;;;;;3.75;3.75;;;;;8.64;100.00;102190.25;4892151;29;49831;-74
2022/12/27 15:27:10;;;;;;;;;4.00;2.75;;;;;9.75;100.00;102367.94;4896457;28;50985;-74
2022/12/27 15:30:03;;;;;;;;;2.50;2.50;;;;;9.78;100.00;102393.41;4896822;28;50118;-73
2022/12/27 15:32:53;;;;;;;;;3.75;3.75;;;;;9.74;100.00;102382.75;4896802;28;49702;-73
2022/12/27 15:35:50;;;;;;;;;3.75;2.00;;;;;9.73;100.00;102387.94;4896293;28;49669;-73
2022/12/27 15:38:36;;;;;;;;;1.25;1.25;;;;;9.57;100.00;102365.31;4896289;29;50558;-73
2022/12/27 15:41:08;;;;;;;;;3.00;2.25;;;;;9.66;100.00;102385.84;4896187;29;49910;-73
2022/12/27 15:43:49;;;;;;;;;3.50;2.00;;;;;9.62;100.00;102379.53;4896338;29;49905;-73
2022/12/27 15:46:17;;;;;;;;;4.00;3.25;;;;;9.57;100.00;102378.41;4896741;29;50395;-74
2022/12/27 15:49:04;;;;;;;;;8.25;7.25;;;;;9.54;100.00;102375.63;4895999;28;50051;-74
2022/12/27 15:51:39;;;;;;;;;3.25;2.25;;;;;9.27;100.00;102334.94;4893661;28;49988;-74
2022/12/27 15:54:18;;;;;;;;;7.25;5.75;;;;;9.04;100.00;102297.03;4894897;29;50088;-75
2022/12/27 15:56:58;;;;;;;;;4.00;4.00;;;;;9.21;100.00;102342.47;4895587;29;49826;-74
2022/12/27 15:59:33;;;;;;;;;3.75;2.75;;;;;9.42;100.00;102385.47;4893971;29;50121;-74
2022/12/27 16:02:31;;;;;;;;;4.00;4.00;;;;;9.33;100.00;102374.53;4895754;29;49609;-75
2022/12/27 16:05:09;;;;;;;;;3.50;3.50;;;;;9.34;100.00;102371.97;4876295;28;49877;-74
2022/12/27 16:07:35;;;;;;;;;4.00;4.00;;;;;9.30;100.00;102371.75;4901328;28;49812;-73
2022/12/27 16:10:25;;;;;;;;;6.50;6.00;;;;;9.26;100.00;102380.25;4895903;29;49903;-74
2022/12/27 16:12:53;;;;;;;;;3.25;3.00;;;;;9.17;100.00;102370.22;4895881;29;49989;-75
2022/12/27 16:15:47;;;;;;;;;2.00;2.00;;;;;9.18;100.00;102370.31;4892686;29;50021;-74
2022/12/27 16:18:15;;;;;;;;;3.00;3.00;;;;;9.17;100.00;102367.63;4893210;29;50073;-74
2022/12/27 16:20:53;;;;;;;;;2.75;2.75;;;;;8.99;100.00;102343.97;4892228;28;50197;-74
2022/12/27 16:23:23;;;;;;;;;9.00;6.25;;;;;8.94;100.00;102334.97;4893613;28;49626;-74
2022/12/27 16:26:01;;;;;;;;;4.50;4.50;;;;;9.06;100.00;102363.50;4894517;28;49833;-74
2022/12/27 16:28:29;;;;;;;;;6.00;3.75;;;;;7.77;100.00;102163.78;4894998;28;49874;-75
2022/12/27 16:30:57;;;;;;;;;3.25;3.25;;;;;8.85;100.00;102369.41;4894604;28;49644;-75
2022/12/27 16:33:26;;;;;;;;;5.25;5.25;;;;;9.03;100.00;102371.22;4896637;28;49925;-73
2022/12/27 16:36:22;;;;;;;;;4.50;4.50;;;;;9.01;100.00;102373.75;4896704;28;49781;-75
2022/12/27 16:39:11;;;;;;;;;6.00;2.75;;;;;8.95;100.00;102364.66;4893890;29;49804;-75
2022/12/27 16:41:36;;;;;;;;;7.75;6.25;;;;;9.00;100.00;102368.44;4891117;29;50989;-74
2022/12/27 16:44:01;;;;;;;;;6.50;5.50;;;;;8.98;100.00;102375.34;4893855;28;49896;-74
2022/12/27 16:47:04;;;;;;;;;2.75;2.75;;;;;8.96;100.00;102377.84;4893485;28;50651;-74
2022/12/27 16:49:43;;;;;;;;;7.75;7.00;;;;;8.87;100.00;102372.09;4895987;29;49752;-74
2022/12/27 16:52:47;;;;;;;;;8.00;5.50;;;;;8.95;100.00;102383.91;4890466;29;49862;-73
2022/12/27 16:55:30;;;;;;;;;6.25;4.00;;;;;8.97;100.00;102381.34;4836541;29;49730;-74
2022/12/27 16:58:19;;;;;;;;;11.00;8.00;;;;;8.95;100.00;102364.66;4891187;28;49760;-75
2022/12/27 17:00:50;;;;;;;;;9.50;7.75;;;;;8.65;100.00;102317.72;4895610;28;50050;-74
2022/12/27 17:03:21;;;;;;;;;7.00;6.75;;;;;8.92;100.00;102369.75;4895104;28;50609;-73
2022/12/27 17:05:50;;;;;;;;;7.75;7.25;;;;;8.92;100.00;102365.41;4895023;29;49633;-75
2022/12/27 17:08:23;;;;;;;;;7.25;7.00;;;;;8.93;100.00;102366.31;4894300;28;49859;-74
2022/12/27 17:10:48;;;;;;;;;10.75;8.50;;;;;8.87;100.00;102369.50;4900886;29;49550;-74
2022/12/27 17:13:46;;;;;;;;;14.00;11.25;;;;;8.81;100.00;102366.56;4892073;28;52646;-74
2022/12/27 17:16:20;;;;;;;;;11.50;11.50;;;;;8.57;100.00;102319.91;4889931;28;49906;-74
2022/12/27 17:18:51;;;;;;;;;12.75;10.75;;;;;8.77;100.00;102351.50;4894612;28;49718;-76
2022/12/27 17:21:29;;;;;;;;;7.75;6.50;;;;;8.54;100.00;102313.63;4896127;28;49991;-72
2022/12/27 17:23:57;;;;;;;;;12.00;7.25;;;;;8.63;100.00;102315.84;4901774;28;50580;-72
2022/12/27 17:26:44;;;;;;;;;10.50;10.50;;;;;8.74;100.00;102338.25;4897202;28;49930;-72
2022/12/27 17:29:24;;;;;;;;;12.50;12.00;;;;;8.69;100.00;102329.28;4894845;29;50017;-72
2022/12/27 17:32:00;;;;;;;;;13.25;13.00;;;;;8.65;100.00;102346.50;4892395;29;49736;-72
2022/12/27 17:34:51;;;;;;;;;15.00;12.75;;;;;8.61;100.00;102341.94;4895728;28;50931;-73
2022/12/27 17:37:25;;;;;;;;;13.75;13.25;;;;;8.62;100.00;102351.59;4898909;28;49780;-72
2022/12/27 17:40:06;;;;;;;;;18.50;16.00;;;;;8.64;100.00;102335.97;4893509;29;49902;-72
2022/12/27 17:45:58;;;;;;;;;15.75;14.00;;;;;8.64;100.00;102325.50;4894461;29;49770;-72
2022/12/27 17:48:26;;;;;;;;;19.00;15.75;;;;;8.62;100.00;102321.91;4894459;28;49846;-72
2022/12/27 17:50:55;;;;;;;;;12.75;11.50;;;;;8.32;100.00;102269.69;4894276;29;50496;-73
2022/12/27 17:59:10;;;;;;;;;19.00;16.25;;;;;8.63;100.00;102301.03;4894566;28;49725;-73
2022/12/27 18:01:47;;;;;;;;;15.50;15.25;;;;;8.71;100.00;102310.19;4894381;28;49614;-73
2022/12/27 18:04:18;;;;;;;;;19.25;16.75;;;;;8.72;100.00;102313.72;4894576;28;49759;-72
2022/12/27 18:06:43;;;;;;;;;12.00;11.50;;;;;8.71;100.00;102306.69;4893187;28;50912;-72
2022/12/27 18:09:27;;;;;;;;;15.50;15.50;;;;;8.71;100.00;102298.81;4891103;28;49711;-73
2022/12/27 18:11:52;;;;;;;;;17.75;16.00;;;;;8.60;100.00;102278.22;4894020;28;49765;-72
2022/12/27 18:14:17;;;;;;;;;18.00;16.25;;;;;8.76;100.00;102311.31;4894480;28;49764;-72
2022/12/27 18:16:43;;;;;;;;;14.50;13.75;;;;;8.50;100.00;102265.47;4892798;29;51785;-72
2022/12/27 18:19:18;;;;;;;;;18.25;15.25;;;;;8.61;100.00;102273.88;4892997;29;49705;-72
2022/12/27 18:21:55;;;;;;;;;15.25;15.25;;;;;8.71;100.00;102285.72;4893582;29;49736;-72
2022/12/27 18:24:31;;;;;;;;;16.00;16.00;;;;;8.54;100.00;102250.81;4893593;28;50032;-74
2022/12/27 18:27:06;;;;;;;;;14.75;14.75;;;;;8.80;100.00;102300.22;4894465;28;49892;-72
2022/12/27 18:29:32;;;;;;;;;23.25;19.75;;;;;8.74;100.00;102276.31;4893986;28;49879;-73
2022/12/27 18:32:04;;;;;;;;;25.50;23.50;;;;;8.64;100.00;102245.22;4894103;28;49751;-73
2022/12/27 18:34:33;;;;;;;;;16.50;14.50;;;;;8.79;100.00;102268.72;4892740;29;50089;-73
2022/12/27 18:37:12;;;;;;;;;19.00;16.50;;;;;8.68;100.00;102244.56;4893881;29;50656;-73
2022/12/27 18:39:59;;;;;;;;;16.75;14.00;;;;;8.55;100.00;102221.19;4892701;29;49651;-74
2022/12/27 18:42:39;;;;;;;;;13.75;13.75;;;;;8.76;100.00;102263.28;4893837;28;49874;-74
2022/12/27 18:45:14;;;;;;;;;18.00;17.00;;;;;8.78;100.00;102252.09;4893862;28;50033;-74
2022/12/27 18:47:46;;;;;;;;;17.25;16.75;;;;;8.67;100.00;102241.88;4893584;28;51790;-74
2022/12/27 18:50:32;;;;;;;;;20.50;15.00;;;;;8.77;100.00;102258.13;4893065;28;49742;-72
2022/12/27 18:53:22;;;;;;;;;16.50;15.25;;;;;8.77;100.00;102255.50;4891265;29;49887;-71
2022/12/27 18:56:14;;;;;;;;;16.75;15.75;;;;;8.78;100.00;102251.16;4892981;29;49812;-70
2022/12/27 18:58:57;;;;;;;;;12.00;10.75;;;;;8.78;100.00;102261.63;4886822;29;50278;-71
2022/12/27 19:01:22;;;;;;;;;16.50;13.00;;;;;8.75;100.00;102256.25;4893251;28;49911;-72
2022/12/27 19:04:13;;;;;;;;;16.75;11.00;;;;;8.76;100.00;102253.72;4893081;28;49854;-73
2022/12/27 19:07:01;;;;;;;;;12.75;12.75;;;;;8.76;100.00;102248.47;4893202;29;49974;-72
2022/12/27 19:09:29;;;;;;;;;18.50;14.00;;;;;8.80;100.00;102242.59;4880190;29;52496;-67
2022/12/27 19:11:59;;;;;;;;;12.50;12.00;;;;;8.77;100.00;102239.78;4893677;29;49809;-66
2022/12/27 19:14:36;;;;;;;;;14.00;13.00;;;;;8.68;100.00;102209.63;4893913;28;49870;-68
2022/12/27 19:17:02;;;;;;;;;10.25;9.00;;;;;8.83;100.00;102224.41;4893650;28;49961;-62
2022/12/27 19:19:29;;;;;;;;;15.00;12.50;;;;;8.89;100.00;102237.84;4894878;28;51969;-69
2022/12/27 19:21:55;;;;;;;;;12.75;12.75;;;;;8.91;100.00;102227.44;4893973;28;50029;-63
2022/12/27 19:24:27;;;;;;;;;14.50;11.75;;;;;8.93;100.00;102225.78;4892707;29;50102;-63
2022/12/27 19:26:54;;;;;;;;;9.75;9.75;;;;;8.92;100.00;102217.84;4891665;29;49866;-63
2022/12/27 19:29:26;;;;;;;;;12.50;11.50;;;;;8.89;100.00;102208.13;4892082;29;50612;-63
2022/12/27 19:31:55;;;;;;;;;13.00;12.00;;;;;8.97;100.00;102222.47;4893510;28;49773;-64
2022/12/27 19:34:23;;;;;;;;;13.25;12.25;;;;;8.94;100.00;102224.94;4889513;28;49997;-63
2022/12/27 19:36:49;;;;;;;;;12.75;12.00;;;;;8.99;100.00;102226.09;4888443;28;49963;-67
2022/12/27 19:39:28;;;;;;;;;9.00;8.75;;;;;8.97;100.00;102222.47;4892739;28;50722;-71
2022/12/27 19:41:58;;;;;;;;;4.25;3.50;;;;;8.91;100.00;102206.47;4896186;28;49785;-69
2022/12/27 19:44:23;;;;;;;;;8.25;7.50;;;;;8.93;100.00;102210.06;4895553;28;49843;-71
2022/12/27 19:46:48;;;;;;;;;11.00;8.00;;;;;8.92;100.00;102213.50;4896731;28;49696;-68
2022/12/27 19:49:14;;;;;;;;;12.25;11.25;;;;;8.98;100.00;102218.16;4896397;29;50205;-74
2022/12/27 19:51:40;;;;;;;;;6.75;6.75;;;;;8.86;100.00;102194.84;4896235;29;49778;-70
2022/12/27 19:54:14;;;;;;;;;8.50;8.50;;;;;9.01;100.00;102210.47;4896485;29;49757;-74
2022/12/27 19:56:40;;;;;;;;;14.00;11.00;;;;;8.98;100.00;102186.75;4898779;29;50029;-73
2022/12/27 19:59:05;;;;;;;;;7.50;7.50;;;;;9.02;100.00;102192.19;4896166;28;49756;-70
2022/12/27 20:01:31;;;;;;;;;8.50;8.00;;;;;8.89;100.00;102171.47;4899523;29;49870;-70
2022/12/27 20:03:56;;;;;;;;;11.00;8.00;;;;;9.01;100.00;102192.13;4896198;29;49997;-72
2022/12/27 20:06:22;;;;;;;;;10.00;8.50;;;;;8.89;100.00;102174.09;4895923;29;49934;-72
2022/12/27 20:08:49;;;;;;;;;15.75;8.25;;;;;8.92;100.00;102186.41;4896122;28;49863;-71
2022/12/27 20:11:21;;;;;;;;;11.25;9.00;;;;;8.99;100.00;102194.66;4896058;29;49850;-70
2022/12/27 20:13:46;;;;;;;;;8.50;8.50;;;;;8.87;100.00;102173.97;4894427;29;49924;-68
2022/12/27 20:16:15;;;;;;;;;11.75;9.50;;;;;9.00;100.00;102198.19;4895863;28;49879;-69
2022/12/27 20:18:42;;;;;;;;;10.25;9.50;;;;;9.03;100.00;102199.22;4894512;29;52587;-71
2022/12/27 20:21:12;;;;;;;;;12.25;10.75;;;;;9.03;100.00;102188.75;4895456;28;49918;-77
2022/12/27 20:23:38;;;;;;;;;8.00;7.75;;;;;9.04;100.00;102187.91;4894769;28;49875;-69
2022/12/27 20:26:03;;;;;;;;;7.25;7.25;;;;;8.99;100.00;102176.34;4896015;28;49598;-72
2022/12/27 20:28:28;;;;;;;;;10.25;10.25;;;;;9.03;100.00;102167.78;4895522;28;50517;-75
2022/12/27 20:30:54;;;;;;;;;8.50;6.00;;;;;8.57;100.00;102093.91;4895818;28;49784;-69
2022/12/27 20:33:19;;;;;;;;;12.00;9.00;;;;;9.12;100.00;102176.09;4895426;29;54999;-70
2022/12/27 20:35:54;;;;;;;;;8.25;8.00;;;;;9.12;100.00;102172.59;4896419;29;50699;-69
2022/12/27 20:38:20;;;;;;;;;10.25;6.25;;;;;8.97;100.00;102141.28;4895595;28;50619;-69
2022/12/27 20:40:45;;;;;;;;;10.25;8.75;;;;;9.21;100.00;102173.03;4895693;29;50016;-68
2022/12/27 20:43:10;;;;;;;;;12.75;8.00;;;;;9.26;100.00;102175.88;4895053;29;60121;-66
2022/12/27 20:45:36;;;;;;;;;9.00;9.00;;;;;9.07;100.00;102133.09;4895473;28;49957;-69
2022/12/27 20:48:01;;;;;;;;;11.00;11.00;;;;;9.30;100.00;102169.97;4895523;28;49731;-71
2022/12/27 20:50:27;;;;;;;;;6.25;6.25;;;;;9.29;100.00;102171.69;4895135;29;49704;-69
2022/12/27 20:52:52;;;;;;;;;11.25;8.50;;;;;9.32;100.00;102160.44;4895289;29;49805;-71
2022/12/27 20:55:17;;;;;;;;;8.25;6.25;;;;;9.29;100.00;102160.31;4895187;29;53762;-68
2022/12/27 20:57:43;;;;;;;;;7.00;7.00;;;;;9.34;100.00;102151.84;4895231;29;50322;-68
2022/12/27 21:00:10;;;;;;;;;7.50;5.75;;;;;9.36;100.00;102139.72;4894472;28;49766;-68
2022/12/27 21:02:38;;;;;;;;;9.00;8.75;;;;;9.32;100.00;102116.78;4899185;28;49740;-66
2022/12/27 21:05:04;;;;;;;;;9.50;8.25;;;;;9.50;100.00;102142.97;4905483;28;49884;-68
2022/12/27 21:07:30;;;;;;;;;7.00;7.00;;;;;9.53;100.00;102140.50;4894260;29;50809;-67
2022/12/27 21:09:56;;;;;;;;;10.25;8.75;;;;;9.24;100.00;102085.81;4894856;28;49989;-66
2022/12/27 21:12:21;;;;;;;;;8.00;8.00;;;;;9.48;100.00;102134.16;4894554;29;52860;-65
2022/12/27 21:14:48;;;;;;;;;7.50;7.50;;;;;9.51;100.00;102139.53;4890133;28;49962;-66
2022/12/27 21:17:14;;;;;;;;;8.75;8.50;;;;;9.55;100.00;102136.22;4894299;29;51641;-67
2022/12/27 21:19:39;;;;;;;;;10.25;7.00;;;;;9.53;100.00;102130.00;4896177;29;49928;-66
2022/12/27 21:22:04;;;;;;;;;9.25;8.25;;;;;9.58;100.00;102144.25;4894241;29;51920;-66
2022/12/27 21:24:29;;;;;;;;;7.50;6.25;;;;;9.57;100.00;102134.59;4895550;28;49779;-67
2022/12/27 21:26:55;;;;;;;;;10.25;9.00;;;;;9.58;100.00;102130.25;4894078;29;59306;-68
2022/12/27 21:29:20;;;;;;;;;10.50;9.50;;;;;9.62;100.00;102140.94;4894717;28;62291;-68
2022/12/27 21:31:45;;;;;;;;;8.00;7.00;;;;;9.63;100.00;102142.72;4894533;28;56724;-68
2022/12/27 21:34:11;;;;;;;;;9.50;8.00;;;;;9.69;100.00;102129.91;4894116;28;49728;-68